Time;durP1;ratioP1;P1;durP2;ratioP2;P2;SDS_P1;SDS_P2;PMS_P1;PMS_P2;Temp;Humidity;BMP_temperature;BMP_pressure;BME280_temperature;BME280_humidity;BME280_pressure;Samples;Min_cycle;Max_cycle;Signal;HPM_P1;HPM_P2
2023/07/23 00:02:24;;;;;;;2.85;1.30;;;15.80;99.90;;;;;;5050820;28;20461;-76
2023/07/23 00:04:50;;;;;;;4.07;1.48;;;15.70;99.90;;;;;;5050253;28;20053;-76
2023/07/23 00:07:15;;;;;;;2.65;1.27;;;15.70;99.90;;;;;;5050728;28;20033;-77
2023/07/23 00:09:41;;;;;;;5.10;1.50;;;15.80;99.90;;;;;;5050225;28;20021;-76
2023/07/23 00:12:07;;;;;;;2.42;1.83;;;15.80;99.90;;;;;;5050282;28;20025;-75
2023/07/23 00:14:33;;;;;;;3.97;1.40;;;15.70;99.90;;;;;;5049589;28;20387;-74
2023/07/23 00:16:58;;;;;;;3.05;1.20;;;15.70;99.90;;;;;;5050389;28;20033;-74
2023/07/23 00:19:24;;;;;;;3.63;1.33;;;15.70;99.90;;;;;;5050181;28;20138;-75
2023/07/23 00:21:50;;;;;;;1.40;1.25;;;15.70;99.90;;;;;;5049908;28;20454;-75
2023/07/23 00:24:17;;;;;;;2.65;1.10;;;15.70;99.90;;;;;;5050605;28;20492;-74
2023/07/23 00:26:43;;;;;;;1.65;1.10;;;15.70;99.90;;;;;;5049809;28;20478;-74
2023/07/23 00:29:09;;;;;;;1.50;1.30;;;15.70;99.90;;;;;;5050303;28;20393;-74
2023/07/23 00:31:34;;;;;;;2.17;1.33;;;15.70;99.90;;;;;;5048337;28;20100;-74
2023/07/23 00:34:03;;;;;;;2.47;1.80;;;15.70;99.90;;;;;;5050126;28;20359;-74
2023/07/23 00:36:29;;;;;;;5.22;1.60;;;15.70;99.90;;;;;;5049621;28;20029;-79
2023/07/23 00:38:54;;;;;;;4.43;1.67;;;15.80;99.90;;;;;;5050193;28;20025;-74
2023/07/23 00:41:20;;;;;;;2.53;1.63;;;15.80;99.90;;;;;;5049779;28;20031;-76
2023/07/23 00:43:46;;;;;;;4.35;1.52;;;15.70;99.90;;;;;;5050487;28;20021;-76
2023/07/23 00:46:12;;;;;;;3.72;1.58;;;15.70;99.90;;;;;;5050606;28;20119;-76
2023/07/23 00:48:38;;;;;;;4.32;1.60;;;15.70;99.90;;;;;;5050540;28;20034;-76
2023/07/23 00:51:04;;;;;;;3.05;1.70;;;15.70;99.90;;;;;;5050743;28;20331;-75
2023/07/23 00:53:30;;;;;;;2.63;1.52;;;15.70;99.90;;;;;;5048408;28;20029;-79
2023/07/23 00:55:57;;;;;;;2.50;1.38;;;15.70;99.90;;;;;;5049905;28;20025;-75
2023/07/23 00:58:23;;;;;;;2.72;1.50;;;15.70;99.90;;;;;;5050352;28;20033;-75
2023/07/23 01:00:50;;;;;;;2.03;1.30;;;15.70;99.90;;;;;;5049407;28;20016;-75
2023/07/23 01:03:15;;;;;;;4.68;2.00;;;15.70;99.90;;;;;;5050181;28;20025;-75
2023/07/23 01:05:44;;;;;;;3.72;1.92;;;15.70;99.90;;;;;;5049710;28;20025;-75
2023/07/23 01:08:11;;;;;;;4.50;1.58;;;15.70;99.90;;;;;;5050470;28;20052;-75
2023/07/23 01:10:36;;;;;;;3.70;1.80;;;15.70;99.90;;;;;;5049634;28;20048;-76
2023/07/23 01:13:03;;;;;;;5.15;1.63;;;15.70;99.90;;;;;;5048824;28;20336;-76
2023/07/23 01:15:30;;;;;;;2.33;1.65;;;15.70;99.90;;;;;;5049631;28;20036;-79
2023/07/23 01:17:59;;;;;;;3.63;1.52;;;15.60;99.90;;;;;;5049744;28;20052;-75
2023/07/23 01:20:24;;;;;;;6.20;1.55;;;15.70;99.90;;;;;;5049887;28;20032;-75
2023/07/23 01:22:50;;;;;;;3.75;1.75;;;15.70;99.90;;;;;;5049256;28;20072;-76
2023/07/23 01:25:16;;;;;;;3.95;2.00;;;15.60;99.90;;;;;;5048274;28;20029;-76
2023/07/23 01:27:42;;;;;;;2.65;1.50;;;15.60;99.90;;;;;;5049165;28;20068;-76
2023/07/23 01:30:10;;;;;;;2.45;1.30;;;15.70;99.90;;;;;;5049492;28;20036;-75
2023/07/23 01:32:37;;;;;;;4.05;1.58;;;15.70;99.90;;;;;;5049368;28;20021;-75
2023/07/23 01:35:14;;;;;;;4.03;1.85;;;15.70;99.90;;;;;;5049578;28;20093;-75
2023/07/23 01:37:40;;;;;;;4.65;1.77;;;15.50;99.90;;;;;;5049612;28;20033;-76
2023/07/23 01:40:06;;;;;;;6.75;1.90;;;15.50;99.90;;;;;;5050027;28;20046;-75
2023/07/23 01:42:33;;;;;;;3.33;1.77;;;15.60;99.90;;;;;;5048306;28;20029;-79
2023/07/23 01:45:03;;;;;;;4.05;1.55;;;15.60;99.90;;;;;;5053828;28;20031;-76
2023/07/23 01:47:29;;;;;;;3.25;1.50;;;15.60;99.90;;;;;;5053645;28;20032;-75
2023/07/23 01:49:55;;;;;;;3.20;1.45;;;15.50;99.90;;;;;;5053105;28;20111;-77
2023/07/23 01:52:20;;;;;;;3.30;1.40;;;15.60;99.90;;;;;;5053923;28;20492;-75
2023/07/23 01:54:46;;;;;;;5.18;1.50;;;15.50;99.90;;;;;;5053401;28;20071;-75
2023/07/23 01:57:12;;;;;;;4.38;1.40;;;15.50;99.90;;;;;;5053805;28;20029;-75
2023/07/23 01:59:38;;;;;;;4.28;1.55;;;15.50;99.90;;;;;;5052993;28;20021;-75
2023/07/23 02:02:06;;;;;;;2.60;1.25;;;15.50;99.90;;;;;;5053407;28;20513;-75
2023/07/23 02:04:32;;;;;;;3.67;1.40;;;15.50;99.90;;;;;;5052794;28;20332;-77
2023/07/23 02:06:57;;;;;;;1.45;1.35;;;15.50;99.90;;;;;;5052650;28;20098;-75
2023/07/23 02:09:23;;;;;;;3.90;1.35;;;15.50;99.90;;;;;;5053167;28;20021;-75
2023/07/23 02:11:49;;;;;;;5.68;1.65;;;15.50;99.90;;;;;;5052610;28;20021;-75
2023/07/23 02:14:14;;;;;;;2.25;1.45;;;15.50;99.90;;;;;;5053015;28;20021;-74
2023/07/23 02:16:40;;;;;;;1.27;0.90;;;15.50;99.90;;;;;;5052119;28;20029;-75
2023/07/23 02:19:06;;;;;;;2.88;1.00;;;15.50;99.90;;;;;;5052730;28;20032;-75
2023/07/23 02:21:31;;;;;;;4.80;1.23;;;15.50;99.90;;;;;;5052824;28;20332;-74
2023/07/23 02:23:57;;;;;;;1.15;1.05;;;15.50;99.90;;;;;;5051195;28;20086;-74
2023/07/23 02:26:23;;;;;;;1.15;1.05;;;15.50;99.90;;;;;;5052864;28;20033;-75
2023/07/23 02:28:48;;;;;;;1.17;1.02;;;15.50;99.90;;;;;;5052540;28;20151;-74
2023/07/23 02:31:15;;;;;;;4.50;0.93;;;15.50;99.90;;;;;;5052756;28;20021;-74
2023/07/23 02:33:40;;;;;;;1.98;0.80;;;15.50;99.90;;;;;;5052287;28;20029;-74
2023/07/23 02:36:06;;;;;;;2.05;0.88;;;15.60;99.90;;;;;;5052533;28;20465;-74
2023/07/23 02:38:32;;;;;;;2.45;0.90;;;15.50;99.90;;;;;;5052737;28;20033;-74
2023/07/23 02:40:59;;;;;;;3.50;1.25;;;15.50;99.90;;;;;;5051924;28;20048;-74
2023/07/23 02:43:25;;;;;;;3.47;0.95;;;15.40;99.90;;;;;;5052248;28;20382;-74
2023/07/23 02:45:52;;;;;;;4.20;1.00;;;15.40;99.90;;;;;;5051628;28;20082;-74
2023/07/23 02:48:17;;;;;;;2.85;0.90;;;15.40;99.90;;;;;;5052787;28;20046;-74
2023/07/23 02:50:43;;;;;;;4.80;1.13;;;15.40;99.90;;;;;;5052366;28;20017;-74
2023/07/23 02:53:09;;;;;;;4.32;0.93;;;15.30;99.90;;;;;;5052329;28;20103;-75
2023/07/23 02:55:35;;;;;;;2.22;1.10;;;15.30;99.90;;;;;;5051237;28;20031;-76
2023/07/23 02:58:03;;;;;;;2.78;0.90;;;15.30;99.90;;;;;;5051954;28;20035;-75
2023/07/23 03:00:30;;;;;;;2.45;1.00;;;15.40;99.90;;;;;;5050528;28;20401;-74
2023/07/23 03:02:55;;;;;;;1.85;0.98;;;15.40;99.90;;;;;;5052197;28;20630;-75
2023/07/23 03:05:24;;;;;;;2.63;1.17;;;15.40;99.90;;;;;;5052233;28;20029;-75
2023/07/23 03:07:53;;;;;;;3.08;0.93;;;15.40;99.90;;;;;;5051728;28;20116;-74
2023/07/23 03:10:18;;;;;;;3.15;1.02;;;15.40;99.90;;;;;;5052505;28;20319;-74
2023/07/23 03:12:44;;;;;;;4.38;0.90;;;15.40;99.90;;;;;;5051116;28;20025;-75
2023/07/23 03:15:10;;;;;;;0.65;0.63;;;15.40;99.90;;;;;;5050827;28;20029;-74
2023/07/23 03:17:35;;;;;;;1.10;0.93;;;15.40;99.90;;;;;;5051720;28;20040;-74
2023/07/23 03:20:03;;;;;;;2.60;1.10;;;15.40;99.90;;;;;;5052162;28;20037;-74
2023/07/23 03:22:29;;;;;;;0.95;0.70;;;15.40;99.90;;;;;;5051758;28;20036;-74
2023/07/23 03:24:55;;;;;;;1.15;0.90;;;15.40;99.90;;;;;;5051661;28;20026;-75
2023/07/23 03:27:20;;;;;;;1.58;0.88;;;15.40;99.90;;;;;;5051588;28;20424;-75
2023/07/23 03:29:48;;;;;;;4.18;1.08;;;15.40;99.90;;;;;;5051393;28;20108;-75
2023/07/23 03:32:13;;;;;;;4.40;1.15;;;15.40;99.90;;;;;;5051700;28;20123;-75
2023/07/23 03:34:39;;;;;;;0.70;0.70;;;15.40;99.90;;;;;;5050017;28;20374;-78
2023/07/23 03:37:05;;;;;;;1.33;0.75;;;15.40;99.90;;;;;;5051149;28;20051;-75
2023/07/23 03:39:31;;;;;;;3.30;0.80;;;15.40;99.90;;;;;;5051794;28;20037;-75
2023/07/23 03:41:57;;;;;;;2.58;0.98;;;15.40;99.90;;;;;;5051171;28;20430;-75
2023/07/23 03:44:22;;;;;;;1.58;0.63;;;15.40;99.90;;;;;;5051408;28;20087;-75
2023/07/23 03:47:19;;;;;;;1.60;0.80;;;15.40;99.90;;;;;;5050927;28;20082;-76
2023/07/23 03:49:46;;;;;;;0.90;0.65;;;15.40;99.90;;;;;;5042562;28;20041;-76
2023/07/23 03:52:13;;;;;;;1.40;0.68;;;15.40;99.90;;;;;;5051225;28;20124;-75
2023/07/23 03:54:38;;;;;;;0.65;0.60;;;15.40;99.90;;;;;;5051346;28;20032;-76
2023/07/23 03:57:05;;;;;;;1.58;0.65;;;15.40;99.90;;;;;;5050767;28;20425;-75
2023/07/23 03:59:41;;;;;;;1.55;0.55;;;15.40;99.90;;;;;;5051289;28;20071;-74
2023/07/23 04:02:08;;;;;;;1.95;0.50;;;15.40;99.90;;;;;;5051175;28;20021;-75
2023/07/23 04:04:35;;;;;;;1.02;0.47;;;15.40;99.90;;;;;;5051131;28;20380;-75
2023/07/23 04:07:01;;;;;;;2.35;0.90;;;15.40;99.90;;;;;;5050093;28;20175;-75
2023/07/23 04:09:26;;;;;;;2.95;0.90;;;15.40;99.90;;;;;;5050936;28;20490;-75
2023/07/23 04:11:52;;;;;;;2.40;0.60;;;15.40;99.90;;;;;;5050254;28;20086;-75
2023/07/23 04:14:18;;;;;;;1.52;0.80;;;15.40;99.90;;;;;;5051143;28;20044;-75
2023/07/23 04:16:44;;;;;;;1.63;0.57;;;15.40;99.90;;;;;;5049994;28;20123;-75
2023/07/23 04:19:09;;;;;;;1.17;0.50;;;15.40;99.90;;;;;;5050835;28;20162;-75
2023/07/23 04:21:35;;;;;;;4.72;0.68;;;15.40;99.90;;;;;;5050472;28;20025;-75
2023/07/23 04:24:01;;;;;;;1.20;0.40;;;15.40;99.90;;;;;;5050036;28;20621;-75
2023/07/23 04:26:28;;;;;;;2.72;0.52;;;15.40;99.90;;;;;;5050878;28;20479;-76
2023/07/23 04:28:54;;;;;;;1.90;0.70;;;15.40;99.90;;;;;;5050258;28;20052;-75
2023/07/23 04:31:20;;;;;;;1.58;0.68;;;15.40;99.90;;;;;;5050404;28;20169;-75
2023/07/23 04:33:46;;;;;;;2.83;0.50;;;15.40;99.90;;;;;;5050284;28;20174;-75
2023/07/23 04:36:13;;;;;;;1.58;0.57;;;15.40;99.90;;;;;;5050478;28;20067;-75
2023/07/23 04:38:40;;;;;;;0.45;0.40;;;15.40;99.90;;;;;;5050503;28;20040;-74
2023/07/23 04:41:06;;;;;;;2.15;0.30;;;15.40;99.90;;;;;;5049955;28;20052;-74
2023/07/23 04:43:37;;;;;;;5.05;0.40;;;15.40;99.90;;;;;;5050500;28;20064;-74
2023/07/23 04:46:06;;;;;;;3.03;0.60;;;15.40;99.90;;;;;;5049938;28;20710;-75
2023/07/23 04:48:32;;;;;;;0.90;0.57;;;15.40;99.90;;;;;;5050281;28;20032;-75
2023/07/23 04:51:00;;;;;;;0.52;0.40;;;15.40;99.90;;;;;;5050112;28;20375;-75
2023/07/23 04:53:26;;;;;;;1.15;0.40;;;15.50;99.90;;;;;;5049857;28;20025;-74
2023/07/23 04:55:57;;;;;;;0.70;0.40;;;15.50;99.90;;;;;;5049925;28;20123;-75
2023/07/23 04:58:24;;;;;;;2.53;0.50;;;15.50;99.90;;;;;;5050304;28;20025;-74
2023/07/23 05:00:50;;;;;;;0.70;0.35;;;15.40;99.90;;;;;;5049634;28;20488;-74
2023/07/23 05:03:16;;;;;;;2.17;0.40;;;15.40;99.90;;;;;;5050168;28;20031;-74
2023/07/23 05:05:44;;;;;;;1.48;0.45;;;15.40;99.90;;;;;;5050138;28;20427;-74
2023/07/23 05:08:10;;;;;;;0.28;0.28;;;15.40;99.90;;;;;;5049985;28;20035;-75
2023/07/23 05:10:36;;;;;;;1.30;0.30;;;15.40;99.90;;;;;;5050640;28;20351;-75
2023/07/23 05:13:02;;;;;;;0.47;0.25;;;15.40;99.90;;;;;;5049495;28;20030;-76
2023/07/23 05:15:28;;;;;;;1.60;0.47;;;15.40;99.90;;;;;;5050254;28;20067;-74
2023/07/23 05:17:54;;;;;;;1.15;0.52;;;15.40;99.90;;;;;;5049926;28;20017;-75
2023/07/23 05:20:20;;;;;;;0.47;0.47;;;15.40;99.90;;;;;;5053525;28;20430;-75
2023/07/23 05:22:46;;;;;;;1.50;0.40;;;15.40;99.90;;;;;;5054892;28;20101;-78
2023/07/23 05:25:11;;;;;;;0.73;0.40;;;15.40;99.90;;;;;;5054829;28;20111;-75
2023/07/23 05:27:38;;;;;;;0.50;0.50;;;15.40;99.90;;;;;;5054277;28;20063;-75
2023/07/23 05:30:04;;;;;;;1.13;0.20;;;15.40;99.90;;;;;;5053871;28;20025;-75
2023/07/23 05:32:30;;;;;;;1.63;0.30;;;15.40;99.90;;;;;;5053730;28;20032;-76
2023/07/23 05:34:56;;;;;;;2.10;0.40;;;15.50;99.90;;;;;;5053585;28;20036;-75
2023/07/23 05:37:23;;;;;;;0.38;0.30;;;15.40;99.90;;;;;;5053956;28;20025;-75
2023/07/23 05:39:49;;;;;;;0.40;0.40;;;15.40;99.90;;;;;;5053267;28;20033;-76
2023/07/23 05:42:15;;;;;;;0.20;0.20;;;15.50;99.90;;;;;;5054120;28;20359;-75
2023/07/23 05:44:40;;;;;;;0.70;0.30;;;15.50;99.90;;;;;;5053802;28;20028;-75
2023/07/23 05:47:07;;;;;;;0.65;0.22;;;15.50;99.90;;;;;;5053648;28;20033;-75
2023/07/23 05:49:32;;;;;;;0.30;0.20;;;15.50;99.90;;;;;;5053987;28;20021;-75
2023/07/23 05:51:59;;;;;;;0.73;0.35;;;15.50;99.90;;;;;;5051881;28;20327;-75
2023/07/23 05:54:25;;;;;;;0.73;0.40;;;15.50;99.90;;;;;;5053317;28;20025;-75
2023/07/23 05:56:51;;;;;;;1.88;0.30;;;15.50;99.90;;;;;;5053041;28;20032;-75
2023/07/23 05:59:17;;;;;;;1.70;0.40;;;15.50;99.90;;;;;;5053264;28;20056;-76
2023/07/23 06:01:42;;;;;;;0.85;0.30;;;15.60;99.90;;;;;;5053338;28;20025;-75
2023/07/23 06:04:08;;;;;;;0.80;0.30;;;15.50;99.90;;;;;;5052877;28;20107;-76
2023/07/23 06:06:34;;;;;;;3.17;0.43;;;15.60;99.90;;;;;;5053620;28;20025;-75
2023/07/23 06:09:00;;;;;;;0.40;0.30;;;15.60;99.90;;;;;;5052730;28;20029;-76
2023/07/23 06:11:26;;;;;;;1.33;0.55;;;15.50;99.90;;;;;;5053559;28;20544;-75
2023/07/23 06:13:51;;;;;;;0.65;0.30;;;15.60;99.90;;;;;;5052648;28;20036;-75
2023/07/23 06:16:17;;;;;;;1.75;0.40;;;15.60;99.90;;;;;;5053005;28;20024;-75
2023/07/23 06:18:43;;;;;;;0.40;0.20;;;15.60;99.90;;;;;;5052999;28;20033;-75
2023/07/23 06:21:09;;;;;;;0.93;0.22;;;15.60;99.90;;;;;;5052196;28;20043;-75
2023/07/23 06:23:35;;;;;;;0.65;0.50;;;15.70;99.90;;;;;;5052476;28;20100;-75
2023/07/23 06:26:01;;;;;;;0.57;0.40;;;15.70;99.90;;;;;;5052289;28;20037;-75
2023/07/23 06:28:26;;;;;;;3.83;0.50;;;15.80;99.90;;;;;;5052887;28;20124;-74
2023/07/23 06:30:55;;;;;;;1.67;0.20;;;15.80;99.90;;;;;;5051456;28;20091;-75
2023/07/23 06:33:21;;;;;;;1.35;0.45;;;15.80;99.90;;;;;;5052648;28;20017;-75
2023/07/23 06:35:48;;;;;;;0.50;0.38;;;15.90;99.90;;;;;;5052446;28;20067;-75
2023/07/23 06:38:15;;;;;;;2.88;0.57;;;16.00;99.90;;;;;;5052010;28;20037;-75
2023/07/23 06:40:48;;;;;;;1.88;0.38;;;16.00;99.90;;;;;;5052512;28;20101;-75
2023/07/23 06:43:16;;;;;;;0.70;0.20;;;16.00;99.90;;;;;;5050555;28;20115;-74
2023/07/23 06:45:43;;;;;;;1.45;0.20;;;16.10;99.90;;;;;;5052275;28;20033;-75
2023/07/23 06:48:09;;;;;;;3.67;0.30;;;16.10;99.90;;;;;;5051581;28;20033;-74
2023/07/23 06:50:34;;;;;;;0.52;0.25;;;16.10;99.90;;;;;;5052320;28;20343;-75
2023/07/23 06:53:00;;;;;;;0.73;0.38;;;16.10;99.90;;;;;;5051983;28;20029;-75
2023/07/23 06:55:26;;;;;;;0.20;0.20;;;16.10;99.90;;;;;;5052530;28;20043;-75
2023/07/23 06:57:51;;;;;;;2.47;0.30;;;16.10;99.90;;;;;;5051947;28;20029;-77
2023/07/23 07:00:17;;;;;;;1.33;0.22;;;16.20;99.90;;;;;;5050721;28;20489;-74
2023/07/23 07:02:43;;;;;;;2.33;0.40;;;16.30;99.90;;;;;;5052342;28;20033;-75
2023/07/23 07:05:09;;;;;;;1.20;0.20;;;16.30;99.90;;;;;;5051826;28;20158;-74
2023/07/23 07:07:35;;;;;;;0.60;0.40;;;16.30;99.90;;;;;;5052374;28;20063;-74
2023/07/23 07:10:06;;;;;;;1.65;0.25;;;16.20;99.90;;;;;;5051604;28;20033;-74
2023/07/23 07:12:32;;;;;;;0.30;0.20;;;16.30;99.90;;;;;;5052378;28;20082;-74
2023/07/23 07:14:57;;;;;;;3.25;0.57;;;16.30;99.90;;;;;;5051608;28;20029;-74
2023/07/23 07:17:23;;;;;;;0.40;0.20;;;16.30;99.90;;;;;;5052036;28;20021;-74
2023/07/23 07:19:49;;;;;;;0.82;0.50;;;16.40;99.90;;;;;;5052265;28;20029;-74
2023/07/23 07:22:15;;;;;;;1.80;0.40;;;16.40;99.90;;;;;;5051457;28;20033;-74
2023/07/23 07:24:41;;;;;;;0.98;0.30;;;16.50;99.90;;;;;;5051681;28;20029;-74
2023/07/23 07:27:10;;;;;;;1.75;0.47;;;16.60;99.90;;;;;;5050983;28;20033;-74
2023/07/23 07:29:40;;;;;;;0.77;0.30;;;16.60;99.90;;;;;;5051456;28;20021;-75
2023/07/23 07:32:07;;;;;;;2.58;0.60;;;16.60;99.90;;;;;;5051033;28;20033;-75
2023/07/23 07:34:33;;;;;;;1.70;0.30;;;16.60;99.90;;;;;;5051063;28;20036;-76
2023/07/23 07:36:59;;;;;;;0.20;0.15;;;16.50;99.90;;;;;;5050688;28;20542;-76
2023/07/23 07:39:25;;;;;;;3.13;0.50;;;16.50;99.90;;;;;;5051075;28;20111;-76
2023/07/23 07:41:53;;;;;;;3.67;0.73;;;16.60;99.90;;;;;;5050906;28;20111;-76
2023/07/23 07:44:19;;;;;;;0.65;0.30;;;16.70;99.90;;;;;;5050848;28;20029;-77
2023/07/23 07:46:45;;;;;;;0.40;0.38;;;16.80;99.90;;;;;;5051292;28;20060;-77
2023/07/23 07:49:10;;;;;;;1.17;0.15;;;16.90;99.90;;;;;;5051033;28;20067;-77
2023/07/23 07:51:37;;;;;;;0.20;0.20;;;16.90;99.90;;;;;;5051253;28;20047;-76
2023/07/23 07:54:03;;;;;;;3.42;0.30;;;16.80;99.90;;;;;;5050594;28;20029;-77
2023/07/23 07:56:29;;;;;;;0.38;0.28;;;16.90;99.90;;;;;;5051337;28;20095;-76
2023/07/23 07:58:55;;;;;;;0.40;0.40;;;17.00;99.90;;;;;;5049046;28;20052;-79
2023/07/23 08:01:21;;;;;;;0.30;0.30;;;17.00;99.90;;;;;;5051105;28;20052;-76
2023/07/23 08:03:46;;;;;;;0.30;0.30;;;17.10;99.90;;;;;;5051081;28;20469;-76
2023/07/23 08:06:13;;;;;;;0.32;0.30;;;17.10;99.90;;;;;;5050524;28;20029;-76
2023/07/23 08:08:41;;;;;;;0.70;0.40;;;17.20;99.90;;;;;;5051165;28;20025;-76
2023/07/23 08:11:08;;;;;;;0.80;0.40;;;17.30;99.90;;;;;;5048691;28;20539;-76
2023/07/23 08:13:37;;;;;;;1.98;0.50;;;17.20;99.90;;;;;;5050781;28;20033;-76
2023/07/23 08:16:04;;;;;;;1.08;0.30;;;17.20;99.90;;;;;;5050102;28;20035;-77
2023/07/23 08:18:31;;;;;;;0.22;0.22;;;17.10;99.90;;;;;;5050378;28;20040;-80
2023/07/23 08:20:57;;;;;;;0.30;0.17;;;16.80;99.90;;;;;;5050447;28;20356;-82
2023/07/23 08:23:26;;;;;;;0.70;0.20;;;16.50;99.90;;;;;;5049760;28;20361;-79
2023/07/23 08:25:56;;;;;;;0.70;0.22;;;16.20;99.90;;;;;;5050497;28;20029;-77
2023/07/23 08:28:26;;;;;;;0.30;0.20;;;16.10;99.90;;;;;;5050778;28;20056;-76
2023/07/23 08:30:54;;;;;;;1.25;0.30;;;15.90;99.90;;;;;;5050674;28;20087;-75
2023/07/23 08:33:25;;;;;;;1.33;0.30;;;16.00;99.90;;;;;;5050424;28;20141;-77
2023/07/23 08:35:50;;;;;;;1.23;0.20;;;16.00;99.90;;;;;;5050605;28;20219;-78
2023/07/23 08:38:17;;;;;;;0.73;0.20;;;15.80;99.90;;;;;;5049925;28;20553;-77
2023/07/23 08:40:44;;;;;;;0.73;0.30;;;15.80;99.90;;;;;;5050077;28;20339;-77
2023/07/23 08:43:29;;;;;;;1.02;0.20;;;15.80;99.90;;;;;;5049509;28;20488;-77
2023/07/23 08:46:07;;;;;;;0.20;0.20;;;15.70;99.90;;;;;;5050179;28;20040;-80
2023/07/23 08:48:54;;;;;;;1.40;0.40;;;15.80;99.90;;;;;;5050321;28;20025;-76
2023/07/23 08:51:23;;;;;;;2.55;0.38;;;15.80;99.90;;;;;;5050230;28;20031;-76
2023/07/23 08:53:50;;;;;;;0.38;0.20;;;15.90;99.90;;;;;;5050289;28;20044;-77
2023/07/23 08:56:17;;;;;;;0.50;0.20;;;15.90;99.90;;;;;;5049599;28;20758;-77
2023/07/23 08:58:44;;;;;;;0.85;0.25;;;15.90;99.90;;;;;;5050832;28;20021;-76
2023/07/23 09:01:13;;;;;;;3.85;0.40;;;15.80;99.90;;;;;;5049903;28;20033;-76
2023/07/23 09:03:39;;;;;;;3.70;0.63;;;15.70;99.90;;;;;;5050482;28;20021;-78
2023/07/23 09:06:05;;;;;;;3.10;0.60;;;15.70;99.90;;;;;;5049664;28;20017;-76
2023/07/23 09:08:35;;;;;;;2.63;0.40;;;15.60;99.90;;;;;;5049794;28;20074;-76
2023/07/23 09:11:05;;;;;;;1.65;0.35;;;15.70;99.90;;;;;;5049367;28;20048;-75
2023/07/23 09:13:37;;;;;;;5.38;0.40;;;15.80;99.90;;;;;;5049852;28;20041;-75
2023/07/23 09:16:06;;;;;;;2.20;0.30;;;15.70;99.90;;;;;;5049132;28;20033;-75
2023/07/23 09:18:40;;;;;;;0.90;0.40;;;15.70;99.90;;;;;;5049695;28;20028;-75
2023/07/23 09:21:06;;;;;;;0.98;0.40;;;15.70;99.90;;;;;;5049153;28;20072;-75
2023/07/23 09:23:33;;;;;;;1.33;0.35;;;15.70;99.90;;;;;;5049898;28;20029;-75
2023/07/23 09:26:00;;;;;;;2.45;0.30;;;15.70;99.90;;;;;;5048934;28;20339;-75
2023/07/23 09:28:26;;;;;;;1.63;0.30;;;15.80;99.90;;;;;;5049273;28;20045;-75
2023/07/23 09:30:56;;;;;;;3.50;0.30;;;15.80;99.90;;;;;;5049003;28;20025;-75
2023/07/23 09:33:34;;;;;;;2.70;0.38;;;15.80;99.90;;;;;;5050014;28;20025;-74
2023/07/23 09:36:00;;;;;;;1.77;0.40;;;15.80;99.90;;;;;;5048865;28;20056;-74
2023/07/23 09:38:28;;;;;;;1.38;0.57;;;15.80;99.90;;;;;;5048294;28;20041;-74
2023/07/23 09:40:54;;;;;;;0.80;0.40;;;15.80;99.90;;;;;;5049454;28;20029;-75
2023/07/23 09:43:21;;;;;;;1.85;0.68;;;15.80;99.90;;;;;;5049429;28;20482;-74
2023/07/23 09:45:47;;;;;;;3.13;0.50;;;15.90;99.90;;;;;;5049752;28;20167;-74
2023/07/23 09:48:17;;;;;;;1.98;0.32;;;15.80;99.90;;;;;;5049006;28;20033;-74
2023/07/23 09:50:49;;;;;;;1.70;0.70;;;15.90;99.90;;;;;;5049953;28;20025;-74
2023/07/23 09:53:15;;;;;;;0.85;0.40;;;16.10;99.90;;;;;;5049558;28;20319;-74
2023/07/23 09:55:42;;;;;;;4.35;0.60;;;16.20;99.90;;;;;;5049745;28;20187;-74
2023/07/23 09:58:10;;;;;;;1.13;0.40;;;16.10;99.90;;;;;;5049077;28;20052;-74
2023/07/23 10:00:36;;;;;;;2.20;0.65;;;16.00;99.90;;;;;;5049383;28;20146;-75
2023/07/23 10:03:03;;;;;;;1.23;0.55;;;16.10;99.90;;;;;;5048718;28;20017;-75
2023/07/23 10:05:29;;;;;;;2.22;0.60;;;16.30;99.90;;;;;;5052668;28;20087;-74
2023/07/23 10:07:56;;;;;;;2.55;0.90;;;16.40;99.90;;;;;;5052944;28;20139;-74
2023/07/23 10:10:23;;;;;;;4.88;0.73;;;16.40;99.90;;;;;;5052724;28;20064;-74
2023/07/23 10:12:49;;;;;;;2.65;0.60;;;16.30;99.90;;;;;;5053139;28;20053;-74
2023/07/23 10:15:15;;;;;;;2.58;0.73;;;16.30;99.90;;;;;;5051881;28;20384;-74
2023/07/23 10:17:44;;;;;;;2.22;0.90;;;16.30;99.90;;;;;;5052660;28;20120;-75
2023/07/23 10:20:13;;;;;;;5.60;0.80;;;16.30;99.90;;;;;;5051948;28;20364;-74
2023/07/23 10:22:39;;;;;;;5.20;0.68;;;16.30;99.90;;;;;;5052258;28;20025;-74
2023/07/23 10:25:31;;;;;;;1.40;0.30;;;16.20;99.90;;;;;;5051888;28;20462;-74
2023/07/23 10:27:59;;;;;;;1.30;0.30;;;16.20;99.90;;;;;;5051786;28;20072;-77
2023/07/23 10:30:26;;;;;;;1.67;0.60;;;16.20;99.90;;;;;;5051863;28;20029;-74
2023/07/23 10:33:10;;;;;;;3.17;0.70;;;16.10;99.90;;;;;;5052003;28;20112;-74
2023/07/23 10:35:58;;;;;;;2.47;0.40;;;16.10;99.90;;;;;;5051978;28;20029;-74
2023/07/23 10:38:28;;;;;;;2.58;0.68;;;16.00;99.90;;;;;;5051361;28;20044;-74
2023/07/23 10:40:54;;;;;;;2.35;0.60;;;15.90;99.90;;;;;;5051863;28;20033;-75
2023/07/23 10:43:20;;;;;;;2.63;0.82;;;15.90;99.90;;;;;;5051593;28;20060;-74
2023/07/23 10:46:06;;;;;;;0.73;0.70;;;15.90;99.90;;;;;;5052049;28;20033;-74
2023/07/23 10:48:49;;;;;;;1.10;0.50;;;16.00;99.90;;;;;;5051987;28;20095;-74
2023/07/23 10:51:18;;;;;;;2.30;0.55;;;16.00;99.90;;;;;;5050459;28;20028;-74
2023/07/23 10:53:54;;;;;;;1.90;0.65;;;16.10;99.90;;;;;;5051550;28;20021;-74
2023/07/23 10:56:34;;;;;;;1.25;0.65;;;16.10;99.90;;;;;;5052339;28;20025;-74
2023/07/23 10:59:09;;;;;;;1.98;0.30;;;16.00;99.90;;;;;;5052076;28;20473;-75
2023/07/23 11:01:37;;;;;;;1.17;0.50;;;15.90;99.90;;;;;;5052641;28;20036;-74
2023/07/23 11:04:07;;;;;;;2.28;0.60;;;16.00;99.90;;;;;;5052618;28;20029;-75
2023/07/23 11:06:33;;;;;;;2.75;0.68;;;15.80;99.90;;;;;;5053063;28;20021;-74
2023/07/23 11:09:08;;;;;;;0.77;0.30;;;15.70;99.90;;;;;;5052355;28;20025;-77
2023/07/23 11:11:42;;;;;;;2.83;0.50;;;15.60;99.90;;;;;;5052274;28;20025;-76
2023/07/23 11:14:18;;;;;;;1.90;0.57;;;15.70;99.90;;;;;;5052355;28;20033;-76
2023/07/23 11:16:45;;;;;;;2.75;0.70;;;15.60;99.90;;;;;;5051320;28;20398;-75
2023/07/23 11:19:12;;;;;;;1.38;0.50;;;15.50;99.90;;;;;;5051948;28;20033;-76
2023/07/23 11:21:56;;;;;;;2.47;0.57;;;15.50;99.90;;;;;;5052562;28;20362;-76
2023/07/23 11:24:24;;;;;;;1.52;0.60;;;15.50;99.90;;;;;;5051569;28;20067;-76
2023/07/23 11:26:51;;;;;;;0.40;0.40;;;15.50;99.90;;;;;;5052023;28;20150;-76
2023/07/23 11:29:17;;;;;;;1.27;0.50;;;15.50;99.90;;;;;;5051020;28;20490;-75
2023/07/23 11:31:44;;;;;;;2.42;0.80;;;15.50;99.90;;;;;;5052615;28;20060;-76
2023/07/23 11:34:12;;;;;;;2.10;0.75;;;15.50;99.90;;;;;;5051343;28;20032;-77
2023/07/23 11:36:38;;;;;;;3.22;0.82;;;15.50;99.90;;;;;;5051660;28;20037;-75
2023/07/23 11:39:06;;;;;;;2.40;0.75;;;15.50;99.90;;;;;;5051290;28;20021;-77
2023/07/23 11:41:36;;;;;;;1.20;0.57;;;15.50;99.90;;;;;;5049973;28;20068;-77
2023/07/23 11:44:05;;;;;;;1.13;0.30;;;15.60;99.90;;;;;;5051034;28;20021;-75
2023/07/23 11:46:33;;;;;;;1.65;0.60;;;15.60;99.90;;;;;;5051522;28;20025;-77
2023/07/23 11:49:03;;;;;;;3.05;0.57;;;15.60;99.90;;;;;;5050219;28;20060;-82
2023/07/23 11:51:31;;;;;;;1.65;0.50;;;15.70;99.90;;;;;;5051453;28;20347;-79
2023/07/23 11:54:04;;;;;;;1.10;0.50;;;15.80;99.90;;;;;;5050450;28;20363;-77
2023/07/23 11:56:30;;;;;;;1.30;0.40;;;15.80;99.90;;;;;;5050951;28;20051;-79
2023/07/23 11:59:02;;;;;;;1.65;0.60;;;15.80;99.90;;;;;;5051275;28;20458;-76
2023/07/23 12:01:28;;;;;;;1.20;0.40;;;15.90;99.90;;;;;;5051275;28;20025;-77
2023/07/23 12:03:53;;;;;;;0.65;0.40;;;15.90;99.90;;;;;;5052410;28;20128;-76
2023/07/23 12:06:19;;;;;;;0.85;0.60;;;15.90;99.90;;;;;;5051850;28;20060;-76
2023/07/23 12:08:46;;;;;;;0.70;0.47;;;15.80;99.90;;;;;;5051687;28;20474;-76
2023/07/23 12:11:14;;;;;;;1.88;0.60;;;15.90;99.90;;;;;;5051122;28;20459;-76
2023/07/23 12:13:44;;;;;;;2.50;0.50;;;16.10;99.90;;;;;;5051698;28;20044;-76
2023/07/23 12:16:34;;;;;;;1.17;0.30;;;16.10;99.90;;;;;;5050986;28;20236;-76
2023/07/23 12:19:10;;;;;;;1.17;0.38;;;16.10;99.90;;;;;;5051655;28;20037;-80
2023/07/23 12:21:41;;;;;;;2.35;0.77;;;16.10;99.90;;;;;;5051653;28;20129;-76
2023/07/23 12:24:21;;;;;;;2.08;0.50;;;16.10;99.90;;;;;;5050106;28;20029;-76
2023/07/23 12:26:50;;;;;;;0.60;0.50;;;16.20;99.90;;;;;;5050585;28;20059;-76
2023/07/23 12:29:17;;;;;;;2.08;1.08;;;16.10;99.90;;;;;;5050548;28;20339;-76
2023/07/23 12:31:45;;;;;;;1.42;0.52;;;16.00;99.90;;;;;;5050721;28;20037;-76
2023/07/23 12:34:12;;;;;;;3.53;0.55;;;16.10;99.90;;;;;;5050160;28;20032;-76
2023/07/23 12:36:39;;;;;;;1.88;0.60;;;16.00;99.90;;;;;;5049856;28;20509;-78
2023/07/23 12:39:07;;;;;;;3.03;0.90;;;16.10;99.90;;;;;;5049597;28;20072;-77
2023/07/23 12:41:34;;;;;;;2.20;0.77;;;16.00;99.90;;;;;;5050189;28;20451;-76
2023/07/23 12:44:01;;;;;;;3.80;1.00;;;16.00;99.90;;;;;;5049666;28;20443;-76
2023/07/23 12:46:27;;;;;;;1.35;0.57;;;15.80;99.90;;;;;;5049867;28;20090;-76
2023/07/23 12:48:53;;;;;;;3.58;0.75;;;15.80;99.90;;;;;;5049741;28;20458;-76
2023/07/23 12:51:21;;;;;;;3.75;0.85;;;15.70;99.90;;;;;;5049682;28;20095;-76